Time;durP1;ratioP1;P1;durP2;ratioP2;P2;SDS_P1;SDS_P2;PMS_P1;PMS_P2;Temp;Humidity;BMP_temperature;BMP_pressure;BME280_temperature;BME280_humidity;BME280_pressure;Samples;Min_cycle;Max_cycle;Signal;HPM_P1;HPM_P2
2022/03/21 00:00:53;;;;;;;5.43;3.97;;;19.70;31.90;;;;;;5148462;27;46912;-16
2022/03/21 00:03:21;;;;;;;5.18;3.60;;;19.70;31.90;;;;;;5148232;27;48296;-15
2022/03/21 00:05:48;;;;;;;4.50;3.60;;;19.70;31.90;;;;;;5148421;27;47419;-15
2022/03/21 00:08:17;;;;;;;4.20;3.70;;;19.60;31.90;;;;;;5148392;27;46937;-15
2022/03/21 00:10:44;;;;;;;4.25;3.60;;;19.60;31.90;;;;;;5148131;27;47005;-14
2022/03/21 00:13:15;;;;;;;3.38;2.83;;;19.70;31.90;;;;;;5148209;27;48216;-15
2022/03/21 00:15:42;;;;;;;3.95;3.63;;;19.60;31.90;;;;;;5148341;27;46891;-15
2022/03/21 00:18:09;;;;;;;4.00;3.60;;;19.60;31.90;;;;;;5148180;27;46876;-14
2022/03/21 00:20:35;;;;;;;3.97;3.53;;;19.60;32.00;;;;;;5148240;27;46946;-16
2022/03/21 00:23:02;;;;;;;4.32;3.92;;;19.60;32.00;;;;;;5148049;27;48219;-15
2022/03/21 00:25:30;;;;;;;4.30;3.78;;;19.60;32.00;;;;;;5148094;27;46926;-15
2022/03/21 00:27:58;;;;;;;4.03;3.45;;;19.60;32.00;;;;;;5148078;27;46765;-16
2022/03/21 00:30:25;;;;;;;4.18;3.35;;;19.60;32.10;;;;;;5148274;27;47279;-15
2022/03/21 00:32:51;;;;;;;3.92;3.15;;;19.60;32.10;;;;;;5147623;27;48224;-15
2022/03/21 00:35:18;;;;;;;4.13;3.72;;;19.60;32.00;;;;;;5147969;27;47239;-15
2022/03/21 00:37:45;;;;;;;3.92;3.53;;;19.50;32.10;;;;;;5147889;27;46936;-15
2022/03/21 00:40:12;;;;;;;4.55;3.85;;;19.60;32.10;;;;;;5147993;27;47130;-15
2022/03/21 00:42:40;;;;;;;4.05;3.65;;;19.50;32.00;;;;;;5147862;27;47059;-16
2022/03/21 00:45:10;;;;;;;4.75;3.65;;;19.50;32.10;;;;;;5147901;27;47235;-15
2022/03/21 00:47:37;;;;;;;3.83;3.53;;;19.50;32.10;;;;;;5147564;27;46894;-15
2022/03/21 00:50:04;;;;;;;4.00;3.40;;;19.50;32.10;;;;;;5147615;27;46800;-15
2022/03/21 00:52:32;;;;;;;3.97;3.65;;;19.50;32.10;;;;;;5147361;27;49055;-15
2022/03/21 00:54:59;;;;;;;3.50;3.20;;;19.50;32.10;;;;;;5147243;27;46985;-15
2022/03/21 00:57:26;;;;;;;4.32;3.78;;;19.50;32.20;;;;;;5147713;27;46860;-16
2022/03/21 00:59:54;;;;;;;3.97;3.58;;;19.50;32.80;;;;;;5147761;27;47288;-14
2022/03/21 01:02:20;;;;;;;4.55;3.67;;;19.50;32.20;;;;;;5147573;27;48133;-16
2022/03/21 01:04:47;;;;;;;5.15;3.67;;;19.50;32.20;;;;;;5147439;27;46955;-15
2022/03/21 01:07:14;;;;;;;4.47;3.40;;;19.50;32.10;;;;;;5147384;27;46893;-15
2022/03/21 01:09:40;;;;;;;3.70;3.35;;;19.40;32.20;;;;;;5147397;27;46827;-15
2022/03/21 01:12:09;;;;;;;3.88;3.58;;;19.40;32.10;;;;;;5147214;27;48141;-15
2022/03/21 01:14:35;;;;;;;4.38;3.97;;;19.40;32.20;;;;;;5147131;27;46885;-16
2022/03/21 01:17:04;;;;;;;4.68;3.53;;;19.40;32.20;;;;;;5147193;27;47002;-15
2022/03/21 01:19:31;;;;;;;3.63;3.30;;;19.40;32.30;;;;;;5147241;27;46914;-15
2022/03/21 01:21:58;;;;;;;3.95;3.60;;;19.40;32.20;;;;;;5147304;27;48844;-15
2022/03/21 01:24:25;;;;;;;4.22;3.75;;;19.40;32.30;;;;;;5147137;27;46780;-15
2022/03/21 01:26:52;;;;;;;4.82;3.70;;;19.40;32.30;;;;;;5147512;27;46951;-16
2022/03/21 01:29:19;;;;;;;5.82;4.03;;;19.40;32.20;;;;;;5147032;27;47138;-15
2022/03/21 01:31:45;;;;;;;4.57;3.90;;;19.30;32.20;;;;;;5147245;27;47125;-15
2022/03/21 01:34:13;;;;;;;3.65;3.35;;;19.40;32.30;;;;;;5147038;27;47244;-15
2022/03/21 01:36:40;;;;;;;4.75;4.28;;;19.40;32.40;;;;;;5146888;27;46969;-15
2022/03/21 01:39:07;;;;;;;4.95;3.58;;;19.30;32.30;;;;;;5146901;27;46874;-15
2022/03/21 01:41:33;;;;;;;4.65;3.90;;;19.30;32.40;;;;;;5146808;27;48000;-15
2022/03/21 01:44:01;;;;;;;4.75;3.80;;;19.30;32.40;;;;;;5146767;27;46849;-15
2022/03/21 01:46:28;;;;;;;4.15;3.63;;;19.30;32.40;;;;;;5147102;27;46858;-15
2022/03/21 01:48:55;;;;;;;4.28;3.67;;;19.30;32.40;;;;;;5146714;27;46869;-15
2022/03/21 01:51:23;;;;;;;4.28;3.70;;;19.30;32.40;;;;;;5146563;27;48776;-16
2022/03/21 01:56:34;;;;;;;4.18;3.78;;;19.20;32.40;;;;;;5144001;27;46942;-15
2022/03/21 01:59:01;;;;;;;4.00;3.70;;;19.20;32.40;;;;;;5147024;27;47176;-15
2022/03/21 02:01:28;;;;;;;3.60;3.30;;;19.30;32.50;;;;;;5146523;27;48971;-16
2022/03/21 02:03:55;;;;;;;5.75;4.30;;;19.30;32.50;;;;;;5146586;27;46848;-15
2022/03/21 02:06:23;;;;;;;4.53;4.00;;;19.20;32.50;;;;;;5146814;27;46863;-16
2022/03/21 02:08:49;;;;;;;4.38;3.72;;;19.20;32.40;;;;;;5146624;27;47303;-15
2022/03/21 02:11:16;;;;;;;3.70;3.40;;;19.20;32.50;;;;;;5146413;27;47769;-15
2022/03/21 02:13:43;;;;;;;4.18;3.72;;;19.20;32.50;;;;;;5146281;27;46922;-15
2022/03/21 02:16:10;;;;;;;3.97;3.50;;;19.20;32.40;;;;;;5146497;27;46902;-15
2022/03/21 02:18:37;;;;;;;4.07;3.67;;;19.20;32.50;;;;;;5147300;27;46878;-16
2022/03/21 02:21:04;;;;;;;4.35;3.95;;;19.20;32.60;;;;;;5149825;27;49080;-16
2022/03/21 02:23:36;;;;;;;3.85;3.40;;;19.20;32.50;;;;;;5149613;27;46845;-15
2022/03/21 02:26:04;;;;;;;4.03;3.60;;;19.20;32.60;;;;;;5150262;27;46930;-16
2022/03/21 02:28:30;;;;;;;5.22;4.10;;;19.10;32.50;;;;;;5150332;27;47377;-14
2022/03/21 02:30:57;;;;;;;5.05;4.40;;;19.10;32.50;;;;;;5149917;27;47077;-15
2022/03/21 02:33:24;;;;;;;4.20;3.80;;;19.10;32.50;;;;;;5149475;27;46801;-15
2022/03/21 02:35:51;;;;;;;4.10;3.70;;;19.10;32.60;;;;;;5150004;27;47003;-15
2022/03/21 02:38:18;;;;;;;4.75;3.85;;;19.10;32.60;;;;;;5149598;27;47336;-15
2022/03/21 02:40:45;;;;;;;4.22;3.83;;;19.10;32.70;;;;;;5149791;27;49056;-14
2022/03/21 02:43:13;;;;;;;4.10;3.70;;;19.00;32.60;;;;;;5149634;27;46907;-15
2022/03/21 02:45:41;;;;;;;4.05;3.65;;;19.10;32.60;;;;;;5150201;27;46788;-15
2022/03/21 02:48:07;;;;;;;4.63;4.18;;;19.00;32.70;;;;;;5150017;27;47037;-16
2022/03/21 02:50:43;;;;;;;4.00;3.33;;;19.00;32.70;;;;;;5149445;27;47085;-16
2022/03/21 02:53:10;;;;;;;4.43;3.92;;;19.00;32.70;;;;;;5149359;27;46949;-15
2022/03/21 02:55:37;;;;;;;4.38;3.55;;;19.00;32.70;;;;;;5149486;27;46890;-15
2022/03/21 02:58:04;;;;;;;4.85;3.92;;;19.00;32.80;;;;;;5149639;27;46915;-15
2022/03/21 03:00:32;;;;;;;3.92;3.63;;;19.00;32.80;;;;;;5149353;27;48144;-16
2022/03/21 03:02:59;;;;;;;4.55;4.15;;;19.00;32.80;;;;;;5149144;27;46882;-15
2022/03/21 03:05:25;;;;;;;4.28;3.53;;;19.00;32.80;;;;;;5149575;27;47019;-15
2022/03/21 03:07:52;;;;;;;5.20;4.00;;;18.90;32.70;;;;;;5149338;27;47316;-16
2022/03/21 03:10:19;;;;;;;4.15;3.55;;;18.90;32.80;;;;;;5148433;27;46998;-15
2022/03/21 03:12:45;;;;;;;4.38;3.97;;;18.90;32.80;;;;;;5149283;27;46947;-16
2022/03/21 03:15:12;;;;;;;3.95;3.55;;;18.90;32.80;;;;;;5149181;27;46945;-15
2022/03/21 03:17:41;;;;;;;4.13;3.78;;;18.90;32.80;;;;;;5149593;27;46907;-15
2022/03/21 03:20:09;;;;;;;3.92;3.63;;;18.90;32.80;;;;;;5148955;27;49011;-15
2022/03/21 03:22:36;;;;;;;5.07;3.97;;;18.90;32.90;;;;;;5148795;27;46741;-15
2022/03/21 03:25:04;;;;;;;3.70;3.40;;;18.90;32.90;;;;;;5148747;27;46911;-15
2022/03/21 03:27:30;;;;;;;4.20;3.80;;;18.90;32.90;;;;;;5149342;27;47279;-15
2022/03/21 03:29:57;;;;;;;4.65;4.18;;;18.80;32.80;;;;;;5147282;27;46940;-16
2022/03/21 03:32:24;;;;;;;4.15;3.70;;;18.80;32.80;;;;;;5148865;27;46828;-16
2022/03/21 03:34:52;;;;;;;4.25;3.88;;;18.80;32.80;;;;;;5149039;27;47153;-15
2022/03/21 03:37:19;;;;;;;4.68;3.78;;;18.80;32.80;;;;;;5149020;27;46848;-15
2022/03/21 03:39:46;;;;;;;3.78;3.38;;;18.80;32.80;;;;;;5148667;27;49151;-15
2022/03/21 03:42:12;;;;;;;4.88;3.85;;;18.80;32.80;;;;;;5148910;27;47275;-15
2022/03/21 03:44:39;;;;;;;4.47;4.07;;;18.80;32.90;;;;;;5148642;27;46886;-15
2022/03/21 03:47:06;;;;;;;4.85;4.35;;;18.80;32.80;;;;;;5149045;27;46885;-15
2022/03/21 03:49:33;;;;;;;3.92;3.63;;;18.80;32.90;;;;;;5148588;27;47229;-14
2022/03/21 03:52:01;;;;;;;4.20;3.80;;;18.70;32.90;;;;;;5148287;27;46840;-15
2022/03/21 03:54:28;;;;;;;4.30;3.90;;;18.70;32.90;;;;;;5148385;27;46898;-15
2022/03/21 03:56:54;;;;;;;4.43;4.03;;;18.70;33.00;;;;;;5148757;27;46919;-15
2022/03/21 03:59:21;;;;;;;4.50;4.10;;;18.70;33.00;;;;;;5148181;27;48207;-15
2022/03/21 04:01:48;;;;;;;4.78;4.07;;;18.70;33.00;;;;;;5148524;27;46977;-16
2022/03/21 04:04:14;;;;;;;4.90;3.95;;;18.70;33.00;;;;;;5147898;27;47084;-15
2022/03/21 04:06:41;;;;;;;5.75;4.05;;;18.60;33.00;;;;;;5148719;27;46904;-15
2022/03/21 04:09:09;;;;;;;4.40;4.00;;;18.60;33.10;;;;;;5147771;27;48107;-15
2022/03/21 04:11:36;;;;;;;4.38;3.97;;;18.60;33.10;;;;;;5148211;27;46821;-15
2022/03/21 04:14:03;;;;;;;4.50;4.10;;;18.60;33.10;;;;;;5147967;27;46799;-15
2022/03/21 04:16:30;;;;;;;5.28;4.15;;;18.60;33.10;;;;;;5148516;27;46906;-15
2022/03/21 04:18:56;;;;;;;4.30;3.90;;;18.60;33.10;;;;;;5147805;27;48244;-16
2022/03/21 04:21:23;;;;;;;4.72;4.20;;;18.60;33.10;;;;;;5148333;27;46976;-15
2022/03/21 04:23:50;;;;;;;4.22;3.83;;;18.60;33.10;;;;;;5147954;27;46902;-15
2022/03/21 04:26:18;;;;;;;4.25;3.85;;;18.50;33.20;;;;;;5148239;27;47145;-15
2022/03/21 04:28:45;;;;;;;5.15;4.40;;;18.50;33.20;;;;;;5147598;27;47819;-15
2022/03/21 04:31:12;;;;;;;5.32;3.90;;;18.50;33.10;;;;;;5148062;27;47411;-15
2022/03/21 04:33:38;;;;;;;4.68;4.15;;;18.50;33.20;;;;;;5147544;27;46867;-16
2022/03/21 04:36:06;;;;;;;4.18;3.78;;;18.50;33.10;;;;;;5148346;27;46908;-15
2022/03/21 04:38:32;;;;;;;4.78;3.95;;;18.50;33.10;;;;;;5147695;27;49184;-15
2022/03/21 04:40:59;;;;;;;4.30;3.90;;;18.50;33.20;;;;;;5147486;27;46972;-15
2022/03/21 04:43:27;;;;;;;4.35;3.95;;;18.50;33.20;;;;;;5147863;27;46905;-15
2022/03/21 04:45:54;;;;;;;4.30;3.75;;;18.50;33.20;;;;;;5148236;27;47075;-15
2022/03/21 04:48:21;;;;;;;4.18;3.78;;;18.40;33.20;;;;;;5147630;27;47044;-15
2022/03/21 04:50:48;;;;;;;4.30;3.90;;;18.40;33.10;;;;;;5147672;27;47448;-16
2022/03/21 04:53:14;;;;;;;5.20;4.47;;;18.40;33.30;;;;;;5147597;27;46863;-16
2022/03/21 04:55:41;;;;;;;6.15;3.88;;;18.40;33.20;;;;;;5129152;27;46931;-16
2022/03/21 04:58:08;;;;;;;4.35;3.95;;;18.40;33.30;;;;;;5147269;27;47939;-15
2022/03/21 05:00:36;;;;;;;4.40;3.92;;;18.40;33.30;;;;;;5147359;27;46818;-16
2022/03/21 05:03:07;;;;;;;4.20;3.80;;;18.40;33.30;;;;;;5147381;27;46746;-15
2022/03/21 05:05:34;;;;;;;4.63;4.13;;;18.40;33.40;;;;;;5147579;27;46941;-15
2022/03/21 05:08:02;;;;;;;4.32;3.80;;;18.30;33.40;;;;;;5147433;27;47807;-15
2022/03/21 05:10:29;;;;;;;4.93;3.92;;;18.30;33.40;;;;;;5147212;27;47287;-14
2022/03/21 05:12:57;;;;;;;4.88;4.00;;;18.30;33.40;;;;;;5147272;27;46862;-16
2022/03/21 05:15:23;;;;;;;4.68;4.20;;;18.30;33.40;;;;;;5147664;27;46919;-15
2022/03/21 05:17:52;;;;;;;4.82;4.03;;;18.30;33.40;;;;;;5147341;27;47006;-15
2022/03/21 05:20:19;;;;;;;4.57;4.07;;;18.30;33.50;;;;;;5147139;27;46891;-15
2022/03/21 05:30:57;;;;;;;4.43;4.03;;;18.30;33.40;;;;;;5147143;27;47003;-16
2022/03/21 05:31:02;;;;;;;4.55;3.90;;;18.20;33.50;;;;;;5144275;27;46919;-15
2022/03/21 05:36:15;;;;;;;4.85;3.70;;;18.20;33.50;;;;;;5144414;27;47171;-15
2022/03/21 05:38:41;;;;;;;4.47;3.88;;;18.20;33.50;;;;;;5146980;27;49079;-15
2022/03/21 05:41:08;;;;;;;4.40;4.00;;;18.20;33.40;;;;;;5147025;27;46793;-15
2022/03/21 05:43:35;;;;;;;4.32;3.92;;;18.20;33.50;;;;;;5146886;27;47020;-15
2022/03/21 05:46:03;;;;;;;4.85;4.18;;;18.20;33.50;;;;;;5147008;27;46969;-15
2022/03/21 05:51:16;;;;;;;4.32;3.80;;;18.20;33.50;;;;;;5143934;27;46758;-15
2022/03/21 05:53:42;;;;;;;5.22;4.25;;;18.20;33.60;;;;;;5147986;27;46820;-15
2022/03/21 05:56:09;;;;;;;4.85;4.15;;;18.10;33.60;;;;;;5150862;27;46883;-16
2022/03/21 05:58:36;;;;;;;6.25;4.38;;;18.10;33.60;;;;;;5150334;27;48848;-16
2022/03/21 06:01:03;;;;;;;6.30;4.40;;;18.10;33.70;;;;;;5150521;27;46920;-16
2022/03/21 06:03:31;;;;;;;4.55;3.95;;;18.10;33.60;;;;;;5149968;27;47013;-15
2022/03/21 06:05:59;;;;;;;4.38;3.90;;;18.10;33.60;;;;;;5150375;27;46966;-15
2022/03/21 06:08:26;;;;;;;4.00;3.65;;;18.10;33.60;;;;;;5149777;27;48013;-15
2022/03/21 06:11:03;;;;;;;5.22;4.20;;;18.10;34.30;;;;;;5149960;27;46995;-15
2022/03/21 06:13:31;;;;;;;5.05;3.72;;;18.10;33.70;;;;;;5150134;27;46945;-15
2022/03/21 06:15:57;;;;;;;4.25;3.85;;;18.10;33.70;;;;;;5150155;27;46930;-15
2022/03/21 06:18:24;;;;;;;5.35;4.47;;;18.10;33.70;;;;;;5149535;27;47781;-15
2022/03/21 06:20:52;;;;;;;4.95;4.40;;;18.10;33.70;;;;;;5150296;27;47398;-16
2022/03/21 06:23:19;;;;;;;5.05;4.38;;;18.10;33.70;;;;;;5149957;27;46898;-15
2022/03/21 06:25:45;;;;;;;4.97;3.85;;;18.10;33.70;;;;;;5150251;27;47283;-14
2022/03/21 06:28:13;;;;;;;5.45;4.00;;;18.10;33.70;;;;;;5149844;27;48110;-15
2022/03/21 06:30:40;;;;;;;4.40;4.00;;;18.10;33.70;;;;;;5149461;27;46871;-15
2022/03/21 06:33:07;;;;;;;4.55;4.13;;;18.10;33.70;;;;;;5149612;27;46844;-15
2022/03/21 06:35:33;;;;;;;4.93;4.18;;;18.10;33.70;;;;;;5149960;27;47127;-15
2022/03/21 06:38:01;;;;;;;4.55;4.13;;;18.10;33.80;;;;;;5149699;27;48139;-15
2022/03/21 06:40:29;;;;;;;4.85;4.05;;;18.10;33.70;;;;;;5149397;27;46901;-16
2022/03/21 06:42:56;;;;;;;4.75;3.97;;;18.10;33.70;;;;;;5149499;27;46895;-15
2022/03/21 06:45:23;;;;;;;4.38;3.97;;;18.10;33.70;;;;;;5149750;27;46844;-15
2022/03/21 06:47:49;;;;;;;5.20;4.32;;;18.20;33.70;;;;;;5149392;27;49042;-15
2022/03/21 06:50:16;;;;;;;4.50;4.10;;;18.10;33.70;;;;;;5149285;27;46890;-16
2022/03/21 06:52:44;;;;;;;4.28;3.88;;;18.10;33.70;;;;;;5149703;27;46783;-15
2022/03/21 06:55:12;;;;;;;4.78;4.32;;;18.20;33.80;;;;;;5149664;27;47308;-16
2022/03/21 06:57:39;;;;;;;4.95;4.45;;;18.20;33.70;;;;;;5149123;27;48099;-15
2022/03/21 07:00:07;;;;;;;4.72;4.28;;;18.20;33.70;;;;;;5149173;27;47288;-15
2022/03/21 07:02:34;;;;;;;4.95;4.43;;;18.20;33.70;;;;;;5149093;27;46819;-16
2022/03/21 07:05:02;;;;;;;4.78;4.30;;;18.20;33.70;;;;;;5148500;27;47007;-16
2022/03/21 07:07:29;;;;;;;6.70;4.43;;;18.20;33.40;;;;;;5149055;27;46933;-16
2022/03/21 07:09:56;;;;;;;4.25;3.90;;;18.20;33.70;;;;;;5146944;27;47265;-16
2022/03/21 07:12:25;;;;;;;5.25;3.95;;;18.20;33.60;;;;;;5148465;27;47111;-16
2022/03/21 07:14:51;;;;;;;5.30;4.45;;;18.20;33.60;;;;;;5147627;27;46883;-16
2022/03/21 07:17:19;;;;;;;4.78;4.10;;;18.20;33.70;;;;;;5148705;27;48134;-17
2022/03/21 07:19:46;;;;;;;5.15;4.43;;;18.20;33.70;;;;;;5148586;27;47271;-16
2022/03/21 07:22:13;;;;;;;4.63;4.07;;;18.20;33.60;;;;;;5147692;27;46995;-17
2022/03/21 07:24:40;;;;;;;4.75;4.25;;;18.20;33.60;;;;;;5148795;27;47042;-15
2022/03/21 07:27:07;;;;;;;5.15;4.32;;;18.20;33.60;;;;;;5148666;27;48192;-16
2022/03/21 07:29:35;;;;;;;4.97;4.40;;;18.20;33.60;;;;;;5148481;27;46910;-15
2022/03/21 07:32:02;;;;;;;5.50;4.75;;;18.30;33.70;;;;;;5149165;27;46968;-16
2022/03/21 07:34:29;;;;;;;7.97;4.30;;;18.30;33.50;;;;;;5147660;27;46927;-15
2022/03/21 07:36:56;;;;;;;4.95;4.38;;;18.30;33.70;;;;;;5148058;27;47980;-16
2022/03/21 07:39:22;;;;;;;5.13;4.25;;;18.30;33.60;;;;;;5146572;27;47016;-17
2022/03/21 07:41:49;;;;;;;6.30;5.00;;;18.30;33.60;;;;;;5147663;27;47030;-17
2022/03/21 07:47:17;;;;;;;4.88;4.28;;;18.30;33.60;;;;;;5147561;27;46992;-15
2022/03/21 07:47:20;;;;;;;4.57;4.18;;;18.40;33.70;;;;;;5145681;27;47905;-16
2022/03/21 07:49:48;;;;;;;5.90;4.63;;;18.40;33.70;;;;;;5145905;27;46896;-15
2022/03/21 07:52:17;;;;;;;4.80;4.30;;;18.40;33.60;;;;;;5148208;27;46939;-16
2022/03/21 07:54:43;;;;;;;4.40;4.00;;;18.40;33.60;;;;;;5148626;27;46839;-16
2022/03/21 07:57:10;;;;;;;4.90;4.40;;;18.40;33.60;;;;;;5148179;27;48959;-15
2022/03/21 07:59:37;;;;;;;5.38;4.55;;;18.40;33.60;;;;;;5148369;27;47427;-15
2022/03/21 08:02:06;;;;;;;5.07;4.38;;;18.50;33.60;;;;;;5148334;27;46816;-15
2022/03/21 08:04:33;;;;;;;4.90;4.40;;;18.50;33.50;;;;;;5148496;27;46919;-15
2022/03/21 08:07:00;;;;;;;5.07;4.10;;;18.60;33.60;;;;;;5147853;27;48079;-15
2022/03/21 08:09:27;;;;;;;4.60;4.15;;;18.60;33.50;;;;;;5148368;27;47405;-15
2022/03/21 08:11:54;;;;;;;5.75;4.22;;;18.60;33.50;;;;;;5148155;27;46828;-15
2022/03/21 08:14:21;;;;;;;5.10;4.15;;;18.60;33.50;;;;;;5148406;27;46886;-15
2022/03/21 08:16:47;;;;;;;4.88;4.15;;;18.60;33.50;;;;;;5147452;27;48104;-16
2022/03/21 08:19:17;;;;;;;4.30;3.90;;;18.70;33.50;;;;;;5147754;27;47039;-16
2022/03/21 08:21:43;;;;;;;5.07;4.35;;;18.70;33.50;;;;;;5148348;27;46944;-16
2022/03/21 08:24:12;;;;;;;4.53;3.90;;;18.70;33.50;;;;;;5147676;27;47292;-15
2022/03/21 08:26:39;;;;;;;5.70;4.40;;;18.70;33.50;;;;;;5147988;27;47854;-17
2022/03/21 08:29:06;;;;;;;5.13;4.10;;;18.80;33.50;;;;;;5147846;27;47109;-15
2022/03/21 08:31:33;;;;;;;5.30;4.43;;;18.70;33.40;;;;;;5148126;27;47101;-15
2022/03/21 08:34:00;;;;;;;5.97;4.93;;;18.70;33.40;;;;;;5147584;27;46897;-16
2022/03/21 08:36:28;;;;;;;7.22;4.53;;;18.70;33.50;;;;;;5147084;27;48451;-16
2022/03/21 08:38:55;;;;;;;7.22;4.88;;;18.70;33.70;;;;;;5130022;27;47407;-17
2022/03/21 08:41:23;;;;;;;8.65;4.93;;;18.70;33.90;;;;;;5137300;27;46881;-18
2022/03/21 08:43:50;;;;;;;10.57;5.13;;;18.70;33.60;;;;;;5147759;27;46905;-16
2022/03/21 08:46:17;;;;;;;7.43;4.97;;;18.70;33.90;;;;;;5145993;27;46827;-16
2022/03/21 08:51:30;;;;;;;6.45;4.90;;;18.60;34.00;;;;;;5143828;27;47169;-15
2022/03/21 08:53:56;;;;;;;6.90;5.00;;;18.60;33.90;;;;;;5147189;27;46966;-21
2022/03/21 08:56:25;;;;;;;5.97;4.93;;;18.70;34.10;;;;;;5137192;27;49003;-22
2022/03/21 08:58:52;;;;;;;8.73;4.72;;;18.70;34.10;;;;;;5126543;27;46950;-22
2022/03/21 09:01:19;;;;;;;7.18;4.95;;;18.70;34.10;;;;;;5130189;27;46891;-22
2022/03/21 09:03:45;;;;;;;6.55;4.90;;;18.70;34.20;;;;;;5135486;27;47304;-22
2022/03/21 09:06:12;;;;;;;5.93;4.75;;;18.70;34.20;;;;;;5139495;27;48123;-21
2022/03/21 09:08:42;;;;;;;8.40;5.05;;;18.70;34.30;;;;;;5124928;27;46838;-16
2022/03/21 09:11:09;;;;;;;5.80;4.70;;;18.80;34.30;;;;;;5124626;27;46954;-15
2022/03/21 09:13:36;;;;;;;7.95;5.15;;;18.80;34.30;;;;;;5124899;27;47023;-15
2022/03/21 09:16:02;;;;;;;8.82;5.20;;;18.80;34.30;;;;;;5123911;27;47842;-16
2022/03/21 09:18:29;;;;;;;6.70;5.07;;;18.90;34.40;;;;;;5124394;27;46833;-15
2022/03/21 09:20:56;;;;;;;8.73;5.10;;;18.90;34.30;;;;;;5124621;27;46954;-15
2022/03/21 09:23:23;;;;;;;9.77;4.85;;;18.90;34.20;;;;;;5125310;27;47211;-16
2022/03/21 09:25:51;;;;;;;8.57;5.13;;;18.90;34.20;;;;;;5124571;27;48159;-15
2022/03/21 09:28:18;;;;;;;8.18;5.65;;;18.90;34.10;;;;;;5127350;27;47035;-15
2022/03/21 09:30:44;;;;;;;7.10;4.95;;;19.00;34.10;;;;;;5129412;27;46848;-15
2022/03/21 09:33:11;;;;;;;5.63;4.90;;;19.00;34.10;;;;;;5129122;27;47206;-16
2022/03/21 09:35:38;;;;;;;7.47;4.97;;;19.00;34.00;;;;;;5129703;27;48225;-16
2022/03/21 09:38:05;;;;;;;6.63;4.82;;;19.10;34.00;;;;;;5130180;27;47660;-14
2022/03/21 09:40:31;;;;;;;5.82;4.80;;;19.10;34.00;;;;;;5137525;27;47004;-15
2022/03/21 09:43:00;;;;;;;6.55;4.93;;;19.10;33.90;;;;;;5150313;27;46914;-15
2022/03/21 09:45:26;;;;;;;6.10;4.82;;;19.10;34.00;;;;;;5149193;27;47797;-15
2022/03/21 09:48:12;;;;;;;6.13;4.80;;;19.10;33.90;;;;;;5148848;27;47187;-16
2022/03/21 09:50:40;;;;;;;6.40;4.90;;;19.10;33.80;;;;;;5147629;27;47088;-15
2022/03/21 09:53:07;;;;;;;9.30;5.07;;;19.20;33.80;;;;;;5149056;27;46986;-15
2022/03/21 09:55:34;;;;;;;6.20;4.75;;;19.20;33.70;;;;;;5139550;27;46962;-15
2022/03/21 09:58:03;;;;;;;7.63;4.97;;;19.20;33.60;;;;;;5148473;27;47090;-16
2022/03/21 10:00:31;;;;;;;6.55;5.30;;;19.30;33.80;;;;;;5149457;27;46958;-15
2022/03/21 10:02:58;;;;;;;7.20;5.55;;;19.30;33.70;;;;;;5149287;27;47192;-15
2022/03/21 10:05:32;;;;;;;6.50;5.03;;;19.30;33.60;;;;;;5150161;27;48337;-16
2022/03/21 10:08:11;;;;;;;5.78;4.45;;;19.30;33.60;;;;;;5149258;27;47044;-15
2022/03/21 10:10:38;;;;;;;6.70;5.20;;;19.40;33.60;;;;;;5149028;27;46884;-16
2022/03/21 10:13:09;;;;;;;6.43;5.18;;;19.40;33.50;;;;;;5148260;27;46930;-15
2022/03/21 10:15:36;;;;;;;7.13;5.45;;;19.50;33.60;;;;;;5149660;27;48231;-16
2022/03/21 10:18:07;;;;;;;6.35;5.18;;;19.50;33.60;;;;;;5150150;27;46797;-16
2022/03/21 10:20:34;;;;;;;8.15;4.82;;;19.60;33.60;;;;;;5149596;27;46831;-15
2022/03/21 10:23:16;;;;;;;6.97;5.10;;;19.60;33.50;;;;;;5150518;27;47011;-16
2022/03/21 10:25:43;;;;;;;7.55;5.43;;;19.60;33.50;;;;;;5150022;27;47103;-15
2022/03/21 10:28:11;;;;;;;6.78;5.22;;;19.70;33.50;;;;;;5148617;27;46901;-16
2022/03/21 10:30:42;;;;;;;9.02;5.32;;;19.70;33.60;;;;;;5148575;27;47365;-15
2022/03/21 10:33:09;;;;;;;7.20;4.82;;;19.70;33.50;;;;;;5150081;27;47084;-15
2022/03/21 10:35:49;;;;;;;6.85;4.85;;;19.80;33.50;;;;;;5148287;27;47908;-18
2022/03/21 10:38:29;;;;;;;8.23;5.35;;;19.80;33.30;;;;;;5149019;27;47122;-15
2022/03/21 10:40:55;;;;;;;5.72;5.07;;;19.90;33.30;;;;;;5147788;27;46884;-16
2022/03/21 10:43:25;;;;;;;7.32;4.90;;;20.00;33.40;;;;;;5148634;27;47027;-15
2022/03/21 10:45:53;;;;;;;5.90;4.95;;;20.00;33.20;;;;;;5150835;27;48321;-16
2022/03/21 10:48:20;;;;;;;8.10;5.50;;;20.10;33.10;;;;;;5142060;27;47156;-15
2022/03/21 10:50:48;;;;;;;6.60;4.97;;;20.10;32.90;;;;;;5147438;27;47942;-15
2022/03/21 10:53:16;;;;;;;8.05;5.20;;;20.10;33.00;;;;;;5146847;27;47260;-15
2022/03/21 10:55:44;;;;;;;6.88;5.38;;;20.10;32.90;;;;;;5126300;27;46970;-15
2022/03/21 10:58:11;;;;;;;9.05;5.78;;;20.10;32.70;;;;;;5140486;27;46958;-15
2022/03/21 11:00:39;;;;;;;7.60;5.88;;;20.10;32.70;;;;;;5147531;27;46867;-16
2022/03/21 11:03:09;;;;;;;8.13;5.38;;;20.10;32.80;;;;;;5148222;27;46967;-16
2022/03/21 11:05:36;;;;;;;8.00;5.53;;;20.10;32.90;;;;;;5147793;27;46981;-15
2022/03/21 11:08:04;;;;;;;9.52;6.00;;;20.10;33.00;;;;;;5149436;27;47388;-15
2022/03/21 11:10:31;;;;;;;7.20;5.93;;;20.20;33.00;;;;;;5148701;27;47053;-15
2022/03/21 11:13:01;;;;;;;7.30;5.75;;;20.20;33.20;;;;;;5149116;27;47276;-15
2022/03/21 11:15:27;;;;;;;6.95;5.65;;;20.20;33.00;;;;;;5148723;27;48717;-15
2022/03/21 11:17:56;;;;;;;12.30;6.65;;;20.20;33.10;;;;;;5148416;27;47058;-15
2022/03/21 11:20:23;;;;;;;8.02;5.88;;;20.30;33.10;;;;;;5148076;27;47002;-21
2022/03/21 11:22:52;;;;;;;8.23;5.13;;;20.40;33.00;;;;;;5148779;27;47078;-22
2022/03/21 11:25:18;;;;;;;7.82;4.80;;;20.50;32.80;;;;;;5148575;27;48042;-15
2022/03/21 11:28:27;;;;;;;6.90;5.28;;;20.50;32.50;;;;;;5148940;27;47133;-14
2022/03/21 11:31:04;;;;;;;7.32;5.32;;;20.60;32.40;;;;;;5148599;27;47069;-15
2022/03/21 11:33:36;;;;;;;11.73;6.45;;;20.70;32.40;;;;;;5148957;27;46899;-15
2022/03/21 11:36:05;;;;;;;7.50;5.55;;;20.70;32.10;;;;;;5148129;27;48176;-15
2022/03/21 11:38:34;;;;;;;10.98;6.13;;;20.80;32.20;;;;;;5148583;27;46796;-15
2022/03/21 11:41:13;;;;;;;8.60;5.75;;;20.80;32.10;;;;;;5144490;27;47078;-16
2022/03/21 11:43:40;;;;;;;8.27;5.95;;;20.80;32.00;;;;;;5149071;27;47147;-15
2022/03/21 11:46:29;;;;;;;7.20;5.75;;;20.90;31.80;;;;;;5148573;27;47975;-15
2022/03/21 11:48:58;;;;;;;7.25;5.85;;;20.90;31.70;;;;;;5148464;27;46903;-15
2022/03/21 11:51:40;;;;;;;8.07;5.90;;;20.90;31.70;;;;;;5146972;27;46900;-16
2022/03/21 11:54:08;;;;;;;11.32;5.60;;;21.00;31.70;;;;;;5144055;27;46968;-15
2022/03/21 11:57:08;;;;;;;9.27;5.57;;;21.00;31.80;;;;;;5147348;27;49142;-15
2022/03/21 11:59:54;;;;;;;8.85;6.00;;;21.00;31.50;;;;;;5147111;27;47430;-15
2022/03/21 12:02:55;;;;;;;8.68;5.57;;;21.10;31.60;;;;;;5146360;27;46891;-16
2022/03/21 12:05:55;;;;;;;11.43;6.32;;;21.10;31.50;;;;;;5147327;27;47017;-15
2022/03/21 12:08:48;;;;;;;8.98;6.10;;;21.20;31.50;;;;;;5145314;27;49108;-15
2022/03/21 12:11:49;;;;;;;8.88;6.20;;;21.30;31.40;;;;;;5145665;27;47596;-15
2022/03/21 12:14:27;;;;;;;7.55;5.97;;;21.30;31.30;;;;;;5185667;27;46743;-14
2022/03/21 12:17:41;;;;;;;8.32;5.35;;;21.40;31.30;;;;;;5185694;27;46893;-14
2022/03/21 12:20:18;;;;;;;9.90;6.10;;;21.50;31.40;;;;;;5186235;27;46917;-14
2022/03/21 12:22:47;;;;;;;7.30;5.53;;;21.50;31.40;;;;;;5185936;27;49066;-15
2022/03/21 12:25:15;;;;;;;10.00;6.18;;;21.60;31.10;;;;;;5186084;27;47433;-15
2022/03/21 12:27:43;;;;;;;9.30;5.93;;;21.60;31.00;;;;;;5184815;27;46840;-15
2022/03/21 12:30:35;;;;;;;9.10;6.05;;;21.70;30.70;;;;;;5185936;27;46828;-14
2022/03/21 12:33:04;;;;;;;8.55;6.45;;;21.70;30.70;;;;;;5164229;27;48242;-15
2022/03/21 12:35:53;;;;;;;10.48;6.30;;;21.80;30.60;;;;;;5164949;27;46834;-14
2022/03/21 12:38:21;;;;;;;11.25;6.70;;;21.80;30.80;;;;;;5184714;27;46912;-15
2022/03/21 12:40:51;;;;;;;9.55;5.65;;;21.80;30.70;;;;;;5167007;27;46997;-15
2022/03/21 12:43:18;;;;;;;9.57;6.18;;;21.70;30.60;;;;;;5170459;27;47940;-15
2022/03/21 12:45:47;;;;;;;11.02;6.55;;;21.70;30.70;;;;;;5169159;27;47081;-21
2022/03/21 12:48:16;;;;;;;8.98;6.90;;;21.80;30.70;;;;;;5175925;27;47017;-17
2022/03/21 12:50:43;;;;;;;9.25;6.00;;;21.80;30.50;;;;;;5173407;27;47257;-15
2022/03/21 12:53:10;;;;;;;7.53;6.13;;;21.80;30.50;;;;;;5161628;27;49209;-16
2022/03/21 12:55:37;;;;;;;8.30;6.50;;;21.90;30.50;;;;;;5165652;27;47425;-15
2022/03/21 12:58:04;;;;;;;10.80;6.63;;;21.90;30.50;;;;;;5184928;27;46913;-15
2022/03/21 13:00:34;;;;;;;9.63;7.00;;;21.90;30.60;;;;;;5184633;27;47116;-16
2022/03/21 13:03:05;;;;;;;10.02;6.68;;;21.90;30.50;;;;;;5182844;27;48878;-16
2022/03/21 13:11:21;;;;;;;10.07;6.95;;;22.00;30.50;;;;;;5169764;27;47025;-15
2022/03/21 13:13:52;;;;;;;12.68;6.47;;;22.10;30.10;;;;;;5181880;27;48995;-15
2022/03/21 13:16:19;;;;;;;7.95;5.75;;;22.10;30.30;;;;;;5166803;27;47054;-15